createdAt,value
2018-12-27T00:01:51.127Z,8.43
2018-12-27T00:04:20.476Z,8.40
2018-12-27T00:06:49.836Z,8.52
2018-12-27T00:09:19.262Z,8.38
2018-12-27T00:11:48.626Z,8.35
2018-12-27T00:14:18.023Z,8.29
2018-12-27T00:16:47.403Z,8.31
2018-12-27T00:19:16.759Z,8.33
2018-12-27T00:21:46.124Z,8.42
2018-12-27T00:24:15.635Z,8.43
2018-12-27T00:26:45.019Z,8.37
2018-12-27T00:29:14.366Z,8.39
2018-12-27T00:31:43.988Z,8.36
2018-12-27T00:34:13.586Z,8.42
2018-12-27T00:36:43.220Z,8.30
2018-12-27T00:39:12.854Z,8.28
2018-12-27T00:41:42.488Z,8.28
2018-12-27T00:44:12.083Z,8.30
2018-12-27T00:46:41.661Z,8.31
2018-12-27T00:49:11.264Z,8.30
2018-12-27T00:51:40.876Z,8.28
2018-12-27T00:54:10.470Z,8.32
2018-12-27T00:56:40.067Z,8.26
2018-12-27T00:59:09.661Z,8.30
2018-12-27T01:01:39.258Z,8.26
2018-12-27T01:04:08.857Z,8.31
2018-12-27T01:06:38.465Z,8.30
2018-12-27T01:09:08.087Z,8.31
2018-12-27T01:11:37.690Z,8.40
2018-12-27T01:14:07.310Z,8.42
2018-12-27T01:16:37.027Z,8.36
2018-12-27T01:19:06.618Z,8.31
2018-12-27T01:21:36.228Z,8.31
2018-12-27T01:24:05.825Z,8.23
2018-12-27T01:26:35.415Z,8.29
2018-12-27T01:29:05.006Z,8.34
2018-12-27T01:31:34.598Z,8.41
2018-12-27T01:34:04.225Z,8.34
2018-12-27T01:36:33.838Z,8.30
2018-12-27T01:39:05.163Z,8.28
2018-12-27T01:41:34.744Z,8.11
2018-12-27T01:44:04.353Z,8.28
2018-12-27T01:46:33.943Z,8.37
2018-12-27T01:49:03.570Z,8.30
2018-12-27T01:51:33.160Z,8.20
2018-12-27T01:54:02.763Z,8.23
2018-12-27T01:56:32.375Z,8.22
2018-12-27T01:59:02.006Z,8.24
2018-12-27T02:01:31.610Z,8.18
2018-12-27T02:04:01.220Z,8.30
2018-12-27T02:06:30.806Z,8.32
2018-12-27T02:09:00.442Z,8.24
2018-12-27T02:11:30.048Z,8.18
2018-12-27T02:13:59.649Z,8.25
2018-12-27T02:16:29.269Z,8.29
2018-12-27T02:18:58.894Z,8.29
2018-12-27T02:21:28.523Z,8.32
2018-12-27T02:23:58.128Z,8.47
2018-12-27T02:26:27.729Z,8.35
2018-12-27T02:28:57.357Z,8.30
2018-12-27T02:31:26.954Z,8.36
2018-12-27T02:33:56.592Z,8.34
2018-12-27T02:36:26.178Z,8.27
2018-12-27T02:38:55.784Z,8.27
2018-12-27T02:41:25.395Z,8.27
2018-12-27T02:43:55.002Z,8.24
2018-12-27T02:46:24.610Z,8.20
2018-12-27T02:48:54.218Z,8.17
2018-12-27T02:51:23.849Z,8.18
2018-12-27T02:53:53.431Z,8.20
2018-12-27T02:56:23.047Z,8.15
2018-12-27T02:58:52.648Z,8.35
2018-12-27T03:01:22.267Z,8.24
2018-12-27T03:03:51.934Z,8.15
2018-12-27T03:06:21.583Z,8.10
2018-12-27T03:08:51.178Z,8.28
2018-12-27T03:11:20.773Z,8.24
2018-12-27T03:13:50.382Z,8.20
2018-12-27T03:16:19.987Z,8.28
2018-12-27T03:18:49.613Z,8.29
2018-12-27T03:21:19.219Z,8.18
2018-12-27T03:23:48.833Z,8.16
2018-12-27T03:26:18.435Z,8.16
2018-12-27T03:28:48.443Z,8.03
2018-12-27T03:31:18.055Z,8.18
2018-12-27T03:33:52.642Z,8.23
2018-12-27T03:36:18.950Z,8.23
2018-12-27T03:38:48.563Z,8.15
2018-12-27T03:41:18.160Z,8.18
2018-12-27T03:43:47.792Z,8.11
2018-12-27T03:46:17.388Z,8.09
2018-12-27T03:48:47.012Z,8.09
2018-12-27T03:51:16.702Z,8.09
2018-12-27T03:53:46.321Z,8.09
2018-12-27T03:56:15.919Z,8.08
2018-12-27T03:58:45.542Z,8.19
2018-12-27T04:01:15.165Z,8.02
2018-12-27T04:03:44.820Z,8.10
2018-12-27T04:06:14.506Z,7.91
2018-12-27T04:08:44.110Z,8.03
2018-12-27T04:11:13.719Z,8.06
2018-12-27T04:13:43.357Z,8.15
2018-12-27T04:16:12.733Z,8.10
2018-12-27T04:18:42.083Z,8.06
2018-12-27T04:21:11.444Z,8.17
2018-12-27T04:23:41.157Z,8.18
2018-12-27T04:26:10.592Z,8.07
2018-12-27T04:28:39.954Z,8.13
2018-12-27T04:31:09.369Z,8.40
2018-12-27T04:33:39.271Z,8.37
2018-12-27T04:36:09.428Z,8.31
2018-12-27T04:38:38.802Z,8.35
2018-12-27T04:41:08.170Z,8.17
2018-12-27T04:43:37.911Z,8.18
2018-12-27T04:46:07.263Z,8.12
2018-12-27T04:48:36.626Z,8.12
2018-12-27T04:51:05.984Z,8.15
2018-12-27T04:53:35.340Z,8.19
2018-12-27T04:56:04.691Z,8.17
2018-12-27T04:58:34.042Z,8.09
2018-12-27T05:01:03.424Z,8.09
2018-12-27T05:03:32.779Z,8.06
2018-12-27T05:06:02.150Z,8.08
2018-12-27T05:08:31.565Z,8.04
2018-12-27T05:11:00.883Z,8.02
2018-12-27T05:13:30.234Z,8.02
2018-12-27T05:15:59.621Z,8.05
2018-12-27T05:18:28.978Z,8.26
2018-12-27T05:20:58.373Z,8.27
2018-12-27T05:23:27.727Z,8.11
2018-12-27T05:25:57.081Z,8.14
2018-12-27T05:28:26.479Z,8.11
2018-12-27T05:30:55.881Z,8.19
2018-12-27T05:33:25.240Z,8.19
2018-12-27T05:35:54.600Z,8.14
2018-12-27T05:38:23.977Z,8.01
2018-12-27T05:40:53.373Z,8.23
2018-12-27T05:43:22.756Z,8.20
2018-12-27T05:45:52.169Z,8.10
2018-12-27T05:48:21.554Z,8.33
2018-12-27T05:50:50.895Z,8.46
2018-12-27T05:53:20.253Z,8.30
2018-12-27T05:55:49.604Z,8.19
2018-12-27T05:58:18.968Z,8.09
2018-12-27T06:00:48.354Z,8.27
2018-12-27T06:03:17.716Z,8.21
2018-12-27T06:05:47.095Z,8.11
2018-12-27T06:08:16.449Z,8.08
2018-12-27T06:10:45.802Z,8.01
2018-12-27T06:13:15.171Z,8.10
2018-12-27T06:15:44.515Z,8.14
2018-12-27T06:18:13.887Z,8.09
2018-12-27T06:20:43.281Z,8.19
2018-12-27T06:23:12.621Z,8.07
2018-12-27T06:25:41.981Z,7.98
2018-12-27T06:28:11.343Z,7.91
2018-12-27T06:30:40.690Z,7.97
2018-12-27T06:33:10.067Z,8.04
2018-12-27T06:35:39.430Z,8.00
2018-12-27T06:38:08.802Z,8.05
2018-12-27T06:40:38.158Z,8.11
2018-12-27T06:43:07.536Z,8.05
2018-12-27T06:45:36.904Z,7.99
2018-12-27T06:48:06.239Z,8.02
2018-12-27T06:50:35.587Z,8.01
2018-12-27T06:53:04.937Z,7.86
2018-12-27T06:55:34.369Z,7.93
2018-12-27T06:58:03.745Z,8.07
2018-12-27T07:00:33.107Z,7.99
2018-12-27T07:03:02.472Z,7.97
2018-12-27T07:05:31.838Z,7.94
2018-12-27T07:08:01.195Z,7.99
2018-12-27T07:10:30.568Z,8.05
2018-12-27T07:12:59.931Z,7.89
2018-12-27T07:15:29.298Z,7.81
2018-12-27T07:17:58.663Z,7.92
2018-12-27T07:20:28.039Z,8.03
2018-12-27T07:22:57.394Z,8.01
2018-12-27T07:25:26.773Z,7.92
2018-12-27T07:27:56.128Z,8.06
2018-12-27T07:30:25.482Z,7.87
2018-12-27T07:32:54.836Z,7.95
2018-12-27T07:35:24.206Z,8.04
2018-12-27T07:37:53.571Z,7.99
2018-12-27T07:40:22.962Z,8.00
2018-12-27T07:42:52.347Z,7.98
2018-12-27T07:45:21.717Z,7.95
2018-12-27T07:47:51.082Z,8.04
2018-12-27T07:50:20.458Z,8.01
2018-12-27T07:52:49.844Z,8.11
2018-12-27T07:55:19.273Z,8.05
2018-12-27T07:57:48.631Z,8.00
2018-12-27T08:00:18.331Z,8.10
2018-12-27T08:02:47.688Z,8.16
2018-12-27T08:05:17.061Z,8.18
2018-12-27T08:07:46.413Z,8.04
2018-12-27T08:10:15.795Z,8.07
2018-12-27T08:12:45.145Z,8.06
2018-12-27T08:15:14.500Z,8.21
2018-12-27T08:17:43.838Z,8.10
2018-12-27T08:20:13.317Z,8.08
2018-12-27T08:22:42.656Z,7.97
2018-12-27T08:25:12.180Z,8.03
2018-12-27T08:27:41.529Z,8.48
2018-12-27T08:30:10.974Z,8.45
2018-12-27T08:32:40.346Z,8.40
2018-12-27T08:35:11.597Z,8.64
2018-12-27T08:37:40.993Z,8.60
2018-12-27T08:40:10.375Z,8.60
2018-12-27T08:42:39.735Z,8.68
2018-12-27T08:45:09.246Z,8.59
2018-12-27T08:47:38.686Z,8.38
2018-12-27T08:50:08.147Z,8.45
2018-12-27T08:52:37.562Z,8.46
2018-12-27T08:55:07.190Z,8.53
2018-12-27T08:57:36.652Z,8.58
2018-12-27T09:00:06.406Z,8.72
2018-12-27T09:02:35.776Z,8.76
2018-12-27T09:05:05.526Z,8.75
2018-12-27T09:07:34.931Z,8.73
2018-12-27T09:10:04.586Z,8.72
2018-12-27T09:12:33.965Z,8.59
2018-12-27T09:15:03.397Z,8.51
2018-12-27T09:17:32.846Z,8.42
2018-12-27T09:20:02.205Z,8.53
2018-12-27T09:22:31.583Z,8.48
2018-12-27T09:25:00.935Z,8.56
2018-12-27T09:27:30.321Z,8.65
2018-12-27T09:29:59.683Z,8.93
2018-12-27T09:32:29.063Z,9.00
2018-12-27T09:34:58.434Z,9.04
2018-12-27T09:37:27.793Z,9.09
2018-12-27T09:39:57.183Z,9.18
2018-12-27T09:42:27.005Z,9.20
2018-12-27T09:44:58.051Z,9.22
2018-12-27T09:47:28.175Z,9.29
2018-12-27T09:49:57.494Z,9.33
2018-12-27T09:52:26.952Z,9.39
2018-12-27T09:54:56.349Z,9.40
2018-12-27T09:57:25.722Z,9.45
2018-12-27T09:59:55.117Z,9.17
2018-12-27T10:02:24.487Z,9.20
2018-12-27T10:04:53.899Z,9.01
2018-12-27T10:07:23.280Z,9.04
2018-12-27T10:09:52.642Z,9.07
2018-12-27T10:12:22.015Z,9.02
2018-12-27T10:14:51.403Z,8.99
2018-12-27T10:17:20.831Z,9.01
2018-12-27T10:19:50.297Z,9.02
2018-12-27T10:22:19.748Z,9.33
2018-12-27T10:24:49.119Z,9.29
2018-12-27T10:27:18.610Z,9.26
2018-12-27T10:29:48.080Z,9.14
2018-12-27T10:32:17.466Z,9.18
2018-12-27T10:34:46.847Z,9.24
2018-12-27T10:37:16.280Z,9.22
2018-12-27T10:39:45.695Z,9.14
2018-12-27T10:42:15.079Z,9.05
2018-12-27T10:44:44.451Z,8.94
2018-12-27T10:47:13.999Z,8.98
2018-12-27T10:49:43.463Z,9.05
2018-12-27T10:52:12.846Z,8.97
2018-12-27T10:54:42.310Z,9.04
2018-12-27T10:57:11.620Z,9.05
2018-12-27T10:59:40.989Z,9.04
2018-12-27T11:02:10.358Z,9.03
2018-12-27T11:04:39.747Z,9.09
2018-12-27T11:07:09.344Z,9.02
2018-12-27T11:09:38.794Z,9.10
2018-12-27T11:12:08.190Z,9.09
2018-12-27T11:14:37.626Z,9.01
2018-12-27T11:17:07.083Z,9.01
2018-12-27T11:19:36.464Z,9.02
2018-12-27T11:22:05.904Z,9.03
2018-12-27T11:24:35.292Z,9.15
2018-12-27T11:27:04.737Z,9.14
2018-12-27T11:29:34.392Z,9.18
2018-12-27T11:32:03.767Z,9.15
2018-12-27T11:34:33.258Z,9.12
2018-12-27T11:37:02.688Z,9.10
2018-12-27T11:39:32.046Z,9.17
2018-12-27T11:42:01.532Z,9.10
2018-12-27T11:44:30.883Z,9.13
2018-12-27T11:47:00.268Z,9.21
2018-12-27T11:49:29.639Z,9.15
2018-12-27T11:51:58.982Z,9.13
2018-12-27T11:54:28.448Z,9.37
2018-12-27T11:56:57.797Z,9.33
2018-12-27T11:59:27.183Z,9.41
2018-12-27T12:01:56.633Z,9.32
2018-12-27T12:04:26.005Z,9.32
2018-12-27T12:06:55.395Z,9.33
2018-12-27T12:09:24.987Z,9.35
2018-12-27T12:11:54.465Z,9.44
2018-12-27T12:14:23.921Z,9.46
2018-12-27T12:16:53.384Z,9.39
2018-12-27T12:19:22.799Z,9.40
2018-12-27T12:21:52.229Z,9.43
2018-12-27T12:24:21.902Z,9.50
2018-12-27T12:26:51.289Z,9.50
2018-12-27T12:29:20.677Z,9.66
2018-12-27T12:31:50.027Z,9.60
2018-12-27T12:34:19.452Z,9.51
2018-12-27T12:36:48.931Z,9.56
2018-12-27T12:39:18.324Z,9.58
2018-12-27T12:41:47.717Z,9.57
2018-12-27T12:44:17.096Z,9.50
2018-12-27T12:46:46.496Z,9.66
2018-12-27T12:49:15.857Z,9.71
2018-12-27T12:51:45.218Z,9.75
2018-12-27T12:54:14.648Z,9.71
2018-12-27T12:56:43.943Z,9.77
2018-12-27T12:59:13.364Z,9.75
2018-12-27T13:01:42.854Z,9.75
2018-12-27T13:04:12.363Z,9.80
2018-12-27T13:06:41.764Z,9.80
2018-12-27T13:09:11.136Z,9.82
2018-12-27T13:11:40.516Z,9.85
2018-12-27T13:14:09.954Z,9.89
2018-12-27T13:16:39.342Z,9.97
2018-12-27T13:19:08.695Z,9.98
2018-12-27T13:21:38.172Z,9.96
2018-12-27T13:24:07.667Z,10.01
2018-12-27T13:26:37.101Z,9.96
2018-12-27T13:29:06.473Z,9.94
2018-12-27T13:31:35.888Z,9.92
2018-12-27T13:34:05.258Z,9.98
2018-12-27T13:36:34.640Z,9.98
2018-12-27T13:39:05.925Z,10.03
2018-12-27T13:41:35.292Z,10.07
2018-12-27T13:44:04.782Z,10.07
2018-12-27T13:46:34.166Z,10.14
2018-12-27T13:49:03.548Z,10.13
2018-12-27T13:51:33.049Z,10.14
2018-12-27T13:54:02.429Z,10.22
2018-12-27T13:56:31.780Z,10.24
2018-12-27T13:59:01.226Z,10.18
2018-12-27T14:01:30.758Z,10.09
2018-12-27T14:04:00.149Z,10.06
2018-12-27T14:06:32.750Z,10.03
2018-12-27T14:09:00.600Z,10.05
2018-12-27T14:11:30.035Z,10.01
2018-12-27T14:13:59.397Z,9.93
2018-12-27T14:16:28.792Z,9.91
2018-12-27T14:18:58.231Z,9.88
2018-12-27T14:21:27.699Z,9.89
2018-12-27T14:23:57.089Z,9.85
2018-12-27T14:26:26.545Z,9.88
2018-12-27T14:28:55.955Z,9.87
2018-12-27T14:31:25.320Z,9.87
2018-12-27T14:33:54.731Z,9.86
2018-12-27T14:36:25.929Z,9.83
2018-12-27T14:38:55.433Z,9.81
2018-12-27T14:41:24.815Z,9.72
2018-12-27T14:43:54.198Z,9.70
2018-12-27T14:46:23.612Z,9.72
2018-12-27T14:48:53.098Z,9.68
2018-12-27T14:51:22.509Z,9.64
2018-12-27T14:53:51.967Z,9.69
2018-12-27T14:56:21.337Z,9.66
2018-12-27T14:58:50.740Z,9.64
2018-12-27T15:01:20.128Z,9.63
2018-12-27T15:03:49.538Z,9.51
2018-12-27T15:06:18.941Z,9.43
2018-12-27T15:08:48.348Z,9.42
2018-12-27T15:11:17.722Z,9.41
2018-12-27T15:13:47.202Z,9.49
2018-12-27T15:16:17.049Z,9.35
2018-12-27T15:18:46.633Z,9.41
2018-12-27T15:21:16.076Z,9.35
2018-12-27T15:23:45.464Z,9.38
2018-12-27T15:26:14.983Z,9.41
2018-12-27T15:28:44.459Z,9.31
2018-12-27T15:31:13.938Z,9.31
2018-12-27T15:33:43.316Z,9.23
2018-12-27T15:36:12.699Z,9.27
2018-12-27T15:38:42.086Z,9.20
2018-12-27T15:41:11.468Z,9.12
2018-12-27T15:43:40.924Z,9.11
2018-12-27T15:46:10.322Z,9.14
2018-12-27T15:48:39.702Z,9.04
2018-12-27T15:51:09.086Z,9.09
2018-12-27T15:53:38.739Z,9.15
2018-12-27T15:56:08.113Z,9.16
2018-12-27T15:58:37.501Z,9.14
2018-12-27T16:01:07.090Z,9.16
2018-12-27T16:03:37.528Z,9.05
2018-12-27T16:06:06.996Z,9.02
2018-12-27T16:08:36.357Z,9.04
2018-12-27T16:11:05.829Z,9.04
2018-12-27T16:13:35.268Z,8.98
2018-12-27T16:16:04.662Z,8.96
2018-12-27T16:18:34.038Z,8.96
2018-12-27T16:21:03.533Z,8.94
2018-12-27T16:23:32.934Z,9.04
2018-12-27T16:26:02.324Z,8.93
2018-12-27T16:28:31.766Z,8.99
2018-12-27T16:31:01.278Z,8.93
2018-12-27T16:33:30.635Z,9.01
2018-12-27T16:36:00.013Z,9.26
2018-12-27T16:38:29.428Z,9.18
2018-12-27T16:40:58.786Z,9.11
2018-12-27T16:43:28.272Z,9.07
2018-12-27T16:45:57.637Z,9.09
2018-12-27T16:48:27.034Z,8.85
2018-12-27T16:50:56.432Z,8.94
2018-12-27T16:53:25.811Z,8.89
2018-12-27T16:55:55.154Z,8.94
2018-12-27T16:58:24.519Z,8.99
2018-12-27T17:00:53.956Z,8.94
2018-12-27T17:03:23.332Z,8.91
2018-12-27T17:05:52.734Z,8.92
2018-12-27T17:08:22.123Z,8.94
2018-12-27T17:10:51.514Z,8.91
2018-12-27T17:13:20.864Z,8.93
2018-12-27T17:15:50.241Z,8.98
2018-12-27T17:18:19.668Z,8.97
2018-12-27T17:20:49.079Z,8.92
2018-12-27T17:23:18.510Z,8.81
2018-12-27T17:25:47.909Z,8.83
2018-12-27T17:28:17.373Z,8.76
2018-12-27T17:30:46.764Z,8.77
2018-12-27T17:33:16.210Z,8.65
2018-12-27T17:35:45.597Z,8.77
2018-12-27T17:38:15.018Z,8.74
2018-12-27T17:40:44.407Z,8.68
2018-12-27T17:43:13.805Z,8.65
2018-12-27T17:45:43.261Z,8.71
2018-12-27T17:48:12.620Z,8.75
2018-12-27T17:50:42.136Z,8.66
2018-12-27T17:53:11.523Z,8.72
2018-12-27T17:55:41.024Z,8.70
2018-12-27T17:58:10.419Z,8.68
2018-12-27T18:00:39.798Z,8.66
2018-12-27T18:03:09.171Z,8.61
2018-12-27T18:05:38.528Z,8.63
2018-12-27T18:08:07.981Z,8.88
2018-12-27T18:10:40.555Z,8.99
2018-12-27T18:13:09.979Z,8.93
2018-12-27T18:15:39.343Z,9.03
2018-12-27T18:18:08.766Z,8.86
2018-12-27T18:20:38.248Z,8.85
2018-12-27T18:23:07.618Z,8.75
2018-12-27T18:25:37.059Z,8.78
2018-12-27T18:28:06.447Z,8.74
2018-12-27T18:30:35.799Z,8.75
2018-12-27T18:33:05.438Z,8.80
2018-12-27T18:35:34.910Z,8.88
2018-12-27T18:38:04.311Z,8.88
2018-12-27T18:40:33.680Z,8.83
2018-12-27T18:43:03.084Z,8.84
2018-12-27T18:45:32.446Z,8.89
2018-12-27T18:48:01.846Z,8.79
2018-12-27T18:50:31.261Z,8.77
2018-12-27T18:53:00.644Z,8.79
2018-12-27T18:55:30.330Z,8.73
2018-12-27T18:57:59.677Z,8.71
2018-12-27T19:00:29.175Z,8.68
2018-12-27T19:02:58.546Z,8.73
2018-12-27T19:05:27.920Z,8.70
2018-12-27T19:07:57.317Z,8.78
2018-12-27T19:10:26.724Z,8.70
2018-12-27T19:13:12.918Z,8.67
2018-12-27T19:15:51.365Z,8.59
2018-12-27T19:18:24.402Z,8.62
2018-12-27T19:21:00.343Z,8.65
2018-12-27T19:23:30.751Z,8.59
2018-12-27T19:26:00.126Z,8.64
2018-12-27T19:28:29.568Z,8.60
2018-12-27T19:30:58.948Z,8.60
2018-12-27T19:33:28.309Z,8.54
2018-12-27T19:35:57.727Z,8.56
2018-12-27T19:38:27.115Z,8.61
2018-12-27T19:40:56.497Z,8.85
2018-12-27T19:43:25.885Z,8.81
2018-12-27T19:45:55.440Z,8.89
2018-12-27T19:48:24.812Z,9.04
2018-12-27T19:50:54.388Z,8.88
2018-12-27T19:53:23.782Z,8.75
2018-12-27T19:55:53.174Z,8.71
2018-12-27T19:58:22.698Z,8.73
2018-12-27T20:00:52.077Z,8.69
2018-12-27T20:03:21.431Z,8.64
2018-12-27T20:05:50.860Z,8.60
2018-12-27T20:08:20.284Z,8.62
2018-12-27T20:10:49.765Z,8.62
2018-12-27T20:13:19.157Z,8.67
2018-12-27T20:15:48.551Z,8.71
2018-12-27T20:18:17.925Z,8.63
2018-12-27T20:20:47.369Z,8.65
2018-12-27T20:23:16.780Z,8.66
2018-12-27T20:25:46.137Z,8.63
2018-12-27T20:28:15.517Z,8.54
2018-12-27T20:30:44.976Z,8.58
2018-12-27T20:33:14.355Z,8.60
2018-12-27T20:35:43.749Z,8.64
2018-12-27T20:38:13.148Z,8.66
2018-12-27T20:40:42.590Z,8.60
2018-12-27T20:43:11.983Z,8.70
2018-12-27T20:45:41.372Z,8.64
2018-12-27T20:48:10.762Z,8.84
2018-12-27T20:50:40.144Z,8.75
2018-12-27T20:53:09.597Z,8.70
2018-12-27T20:55:38.968Z,8.68
2018-12-27T20:58:08.380Z,8.68
2018-12-27T21:00:37.751Z,8.67
2018-12-27T21:03:07.241Z,8.62
2018-12-27T21:05:36.716Z,8.64
2018-12-27T21:08:06.182Z,8.70
2018-12-27T21:10:35.566Z,8.71
2018-12-27T21:13:05.024Z,8.75
2018-12-27T21:15:34.400Z,8.71
2018-12-27T21:18:03.763Z,8.65
2018-12-27T21:20:33.132Z,8.73
2018-12-27T21:23:02.552Z,8.62
2018-12-27T21:25:31.944Z,8.67
2018-12-27T21:28:01.338Z,8.58
2018-12-27T21:30:30.806Z,8.59
2018-12-27T21:33:00.179Z,8.71
2018-12-27T21:35:29.554Z,8.54
2018-12-27T21:37:58.970Z,8.66
2018-12-27T21:40:28.355Z,8.64
2018-12-27T21:42:57.748Z,8.62
2018-12-27T21:45:27.196Z,8.61
2018-12-27T21:47:56.673Z,8.67
2018-12-27T21:50:26.068Z,8.66
2018-12-27T21:52:55.468Z,8.60
2018-12-27T21:55:24.849Z,8.58
2018-12-27T21:57:54.298Z,8.54
2018-12-27T22:00:23.682Z,8.53
2018-12-27T22:02:53.075Z,8.48
2018-12-27T22:05:22.423Z,8.55
2018-12-27T22:07:51.817Z,8.56
2018-12-27T22:10:21.217Z,8.54
2018-12-27T22:12:50.597Z,8.54
2018-12-27T22:15:19.982Z,8.78
2018-12-27T22:17:49.413Z,8.80
2018-12-27T22:20:18.806Z,8.67
2018-12-27T22:22:48.226Z,8.72
2018-12-27T22:25:17.602Z,8.61
2018-12-27T22:27:47.098Z,8.66
2018-12-27T22:30:16.554Z,8.59
2018-12-27T22:32:45.935Z,8.61
2018-12-27T22:35:15.346Z,8.74
2018-12-27T22:37:44.737Z,8.70
2018-12-27T22:40:14.158Z,8.65
2018-12-27T22:42:43.547Z,8.64
2018-12-27T22:45:13.005Z,8.53
2018-12-27T22:47:42.480Z,8.53
2018-12-27T22:50:11.873Z,8.60
2018-12-27T22:52:41.252Z,8.61
2018-12-27T22:55:10.642Z,8.61
2018-12-27T22:57:40.055Z,8.75
2018-12-27T23:00:16.901Z,8.66
2018-12-27T23:02:46.285Z,8.87
2018-12-27T23:05:15.681Z,8.77
2018-12-27T23:07:45.065Z,8.70
2018-12-27T23:10:14.515Z,8.83
2018-12-27T23:12:43.879Z,8.73
2018-12-27T23:15:13.265Z,8.65
2018-12-27T23:17:42.678Z,8.66
2018-12-27T23:20:12.066Z,8.51
2018-12-27T23:22:41.468Z,8.51
2018-12-27T23:25:10.872Z,8.63
2018-12-27T23:27:40.272Z,8.57
2018-12-27T23:30:09.716Z,8.48
2018-12-27T23:32:39.181Z,8.60
2018-12-27T23:35:08.615Z,8.75
2018-12-27T23:37:38.005Z,8.92
2018-12-27T23:40:07.582Z,8.95
2018-12-27T23:42:36.960Z,8.93
2018-12-27T23:45:07.410Z,8.98
2018-12-27T23:47:36.796Z,8.98
2018-12-27T23:50:07.473Z,8.94
2018-12-27T23:52:36.871Z,8.87
2018-12-27T23:55:06.365Z,8.75
2018-12-27T23:57:35.756Z,8.70
